Time;durP1;ratioP1;P1;durP2;ratioP2;P2;SDS_P1;SDS_P2;PMS_P1;PMS_P2;Temp;Humidity;BMP_temperature;BMP_pressure;BME280_temperature;BME280_humidity;BME280_pressure;Samples;Min_cycle;Max_cycle;Signal;HPM_P1;HPM_P2
2021/12/22 00:00:39;;;;;;;32.83;20.75;;;;;;;;;;4973748;28;20028;-86
2021/12/22 00:03:08;;;;;;;39.72;22.77;;;;;;;;;;4976014;28;20178;-86
2021/12/22 00:05:42;;;;;;;31.40;20.27;;;;;;;;;;4961437;28;20051;-86
2021/12/22 00:08:08;;;;;;;31.30;19.50;;;;;;;;;;4953001;28;20039;-86
2021/12/22 00:10:34;;;;;;;39.10;22.23;;;;;;;;;;4954162;28;20047;-86
2021/12/22 00:13:01;;;;;;;33.60;20.95;;;;;;;;;;4956378;28;20088;-85
2021/12/22 00:15:27;;;;;;;40.13;21.02;;;;;;;;;;4945008;28;20093;-85
2021/12/22 00:17:53;;;;;;;37.05;21.58;;;;;;;;;;4949727;28;20066;-85
2021/12/22 00:20:19;;;;;;;34.63;21.85;;;;;;;;;;4952103;28;20084;-86
2021/12/22 00:22:45;;;;;;;40.22;23.98;;;;;;;;;;4930309;28;20046;-85
2021/12/22 00:25:11;;;;;;;35.90;21.55;;;;;;;;;;4951849;28;20494;-85
2021/12/22 00:27:38;;;;;;;38.70;22.02;;;;;;;;;;4945659;28;20070;-85
2021/12/22 00:30:04;;;;;;;41.40;22.88;;;;;;;;;;4957164;28;20035;-84
2021/12/22 00:32:36;;;;;;;37.22;21.90;;;;;;;;;;4948094;28;20569;-85
2021/12/22 00:35:03;;;;;;;42.00;21.52;;;;;;;;;;4932936;28;20054;-85
2021/12/22 00:37:29;;;;;;;30.88;21.05;;;;;;;;;;4941935;28;20050;-85
2021/12/22 00:39:57;;;;;;;34.38;20.77;;;;;;;;;;4964017;28;20418;-85
2021/12/22 00:42:24;;;;;;;33.38;20.55;;;;;;;;;;4962208;28;20042;-85
2021/12/22 00:44:53;;;;;;;41.35;23.25;;;;;;;;;;4950517;28;20129;-85
2021/12/22 00:47:19;;;;;;;40.75;23.40;;;;;;;;;;4960009;28;20101;-86
2021/12/22 00:49:45;;;;;;;43.53;22.77;;;;;;;;;;4954173;28;20059;-87
2021/12/22 00:52:12;;;;;;;40.50;22.13;;;;;;;;;;4979394;28;20483;-85
2021/12/22 00:54:38;;;;;;;34.05;21.27;;;;;;;;;;4958163;28;20070;-85
2021/12/22 00:57:05;;;;;;;41.42;21.40;;;;;;;;;;4918098;28;20046;-85
2021/12/22 00:59:35;;;;;;;36.53;20.67;;;;;;;;;;4955799;28;20102;-86
2021/12/22 01:02:02;;;;;;;39.47;21.92;;;;;;;;;;4954884;28;20114;-84
2021/12/22 01:04:28;;;;;;;38.60;21.73;;;;;;;;;;4950397;28;20047;-87
2021/12/22 01:06:54;;;;;;;32.38;21.60;;;;;;;;;;4957403;28;20035;-86
2021/12/22 01:09:21;;;;;;;35.13;20.65;;;;;;;;;;4946932;28;20066;-86
2021/12/22 01:11:47;;;;;;;32.47;19.80;;;;;;;;;;4965606;28;20463;-86
2021/12/22 01:14:13;;;;;;;36.25;21.27;;;;;;;;;;4963169;28;20063;-85
2021/12/22 01:16:40;;;;;;;38.75;21.85;;;;;;;;;;4953869;28;20043;-85
2021/12/22 01:19:13;;;;;;;40.20;21.40;;;;;;;;;;4951474;28;20510;-86
2021/12/22 01:21:50;;;;;;;38.45;22.88;;;;;;;;;;4954648;28;20484;-86
2021/12/22 01:24:35;;;;;;;43.63;21.55;;;;;;;;;;4947585;28;20436;-86
2021/12/22 01:27:08;;;;;;;32.22;20.88;;;;;;;;;;4956804;28;20043;-86
2021/12/22 01:29:35;;;;;;;35.55;21.70;;;;;;;;;;4949856;28;20046;-85
2021/12/22 01:32:01;;;;;;;38.92;21.38;;;;;;;;;;4949380;28;20055;-86
2021/12/22 01:34:28;;;;;;;36.17;19.98;;;;;;;;;;4947559;29;20046;-86
2021/12/22 01:36:54;;;;;;;35.17;20.52;;;;;;;;;;4952094;28;20563;-85
2021/12/22 01:39:21;;;;;;;33.38;19.83;;;;;;;;;;4949889;28;20054;-85
2021/12/22 01:41:54;;;;;;;39.00;21.50;;;;;;;;;;4961590;28;20066;-86
2021/12/22 01:45:12;;;;;;;34.20;20.77;;;;;;;;;;4977011;28;20043;-85
2021/12/22 01:50:31;;;;;;;37.03;21.98;;;;;;;;;;4946661;28;20526;-85
2021/12/22 01:52:58;;;;;;;37.55;21.77;;;;;;;;;;4947726;28;20498;-85
2021/12/22 01:55:32;;;;;;;38.53;20.67;;;;;;;;;;4947758;28;20094;-85
2021/12/22 01:58:00;;;;;;;37.70;21.88;;;;;;;;;;4947912;28;20439;-84
2021/12/22 02:00:27;;;;;;;35.88;21.00;;;;;;;;;;4948347;28;20036;-85
2021/12/22 02:02:53;;;;;;;41.17;22.95;;;;;;;;;;4949700;28;20073;-85
2021/12/22 02:05:19;;;;;;;35.50;20.95;;;;;;;;;;4955934;28;20117;-85
2021/12/22 02:07:45;;;;;;;41.47;22.55;;;;;;;;;;4969371;28;20050;-85
2021/12/22 02:10:35;;;;;;;35.45;21.73;;;;;;;;;;4963437;28;21322;-85
2021/12/22 02:13:02;;;;;;;37.95;20.08;;;;;;;;;;4944644;29;20043;-85
2021/12/22 02:15:33;;;;;;;43.45;19.58;;;;;;;;;;4948439;28;20157;-85
2021/12/22 02:18:02;;;;;;;29.85;19.23;;;;;;;;;;4931666;28;20043;-85
2021/12/22 02:20:28;;;;;;;35.67;20.77;;;;;;;;;;4949247;28;20051;-86
2021/12/22 02:22:57;;;;;;;30.73;20.80;;;;;;;;;;4947787;28;20110;-85
2021/12/22 02:25:33;;;;;;;33.05;22.20;;;;;;;;;;4947549;28;20035;-85
2021/12/22 02:28:01;;;;;;;38.40;21.88;;;;;;;;;;4945341;28;20534;-84
2021/12/22 02:30:29;;;;;;;36.92;21.30;;;;;;;;;;4929110;28;20035;-85
2021/12/22 02:38:12;;;;;;;35.42;21.23;;;;;;;;;;4946624;29;20043;-85
2021/12/22 02:40:39;;;;;;;34.67;19.42;;;;;;;;;;4926841;29;20503;-85
2021/12/22 02:43:05;;;;;;;35.90;20.33;;;;;;;;;;4945210;28;20043;-86
2021/12/22 02:45:34;;;;;;;39.92;20.52;;;;;;;;;;4929641;28;20039;-85
2021/12/22 02:48:00;;;;;;;35.38;20.77;;;;;;;;;;4947175;28;20101;-85
2021/12/22 02:50:26;;;;;;;36.33;20.95;;;;;;;;;;4948193;28;20035;-86
2021/12/22 02:53:05;;;;;;;33.20;20.20;;;;;;;;;;4913503;28;20053;-86
2021/12/22 02:55:44;;;;;;;34.85;20.35;;;;;;;;;;4912657;28;20036;-86
2021/12/22 02:58:16;;;;;;;31.77;19.58;;;;;;;;;;4926888;29;20141;-86
2021/12/22 03:05:58;;;;;;;37.33;19.15;;;;;;;;;;4947137;28;20078;-86
2021/12/22 03:08:24;;;;;;;31.15;19.05;;;;;;;;;;4955050;29;20062;-85
2021/12/22 03:10:53;;;;;;;35.30;19.65;;;;;;;;;;4945200;28;20047;-85
2021/12/22 03:13:23;;;;;;;35.72;20.05;;;;;;;;;;4946287;28;20492;-86
2021/12/22 03:15:49;;;;;;;40.35;20.40;;;;;;;;;;4962358;28;20043;-86
2021/12/22 03:18:15;;;;;;;35.92;17.65;;;;;;;;;;4948020;29;20049;-86
2021/12/22 03:20:44;;;;;;;29.20;18.63;;;;;;;;;;4947709;28;20050;-85
2021/12/22 03:23:10;;;;;;;37.50;19.95;;;;;;;;;;4947195;28;20051;-86
2021/12/22 03:25:38;;;;;;;38.33;19.23;;;;;;;;;;4948645;28;20075;-85
2021/12/22 03:28:05;;;;;;;37.92;20.23;;;;;;;;;;4943491;28;20047;-85
2021/12/22 03:30:32;;;;;;;32.60;18.30;;;;;;;;;;4944613;28;20051;-85
2021/12/22 03:32:58;;;;;;;35.17;19.35;;;;;;;;;;4914027;29;20043;-84
2021/12/22 03:35:24;;;;;;;35.40;19.58;;;;;;;;;;4946377;28;20031;-85
2021/12/22 03:37:54;;;;;;;41.45;20.75;;;;;;;;;;4947523;28;20050;-85
2021/12/22 03:40:21;;;;;;;42.05;20.25;;;;;;;;;;4947859;28;20039;-85
2021/12/22 03:42:47;;;;;;;35.22;20.02;;;;;;;;;;4954736;28;20117;-85
2021/12/22 03:45:13;;;;;;;41.47;19.33;;;;;;;;;;4911911;29;20039;-85
2021/12/22 03:47:40;;;;;;;33.70;18.20;;;;;;;;;;4947987;28;20093;-84
2021/12/22 03:50:07;;;;;;;46.67;20.88;;;;;;;;;;4927998;29;20117;-86
2021/12/22 03:52:47;;;;;;;39.78;20.88;;;;;;;;;;4946645;29;20094;-86
2021/12/22 03:55:14;;;;;;;37.25;19.40;;;;;;;;;;4944672;28;20117;-85
2021/12/22 03:57:40;;;;;;;38.72;19.00;;;;;;;;;;4946295;29;20423;-85
2021/12/22 04:00:08;;;;;;;43.78;19.95;;;;;;;;;;4944053;28;20051;-85
2021/12/22 04:02:34;;;;;;;35.42;18.48;;;;;;;;;;4947411;28;20433;-84
2021/12/22 04:05:00;;;;;;;35.20;17.77;;;;;;;;;;4930420;28;20696;-83
2021/12/22 04:07:26;;;;;;;41.55;19.92;;;;;;;;;;4945977;28;20047;-84
2021/12/22 04:09:53;;;;;;;37.63;19.60;;;;;;;;;;4946778;28;20960;-84
2021/12/22 04:12:19;;;;;;;39.08;18.77;;;;;;;;;;4942017;28;20407;-84
2021/12/22 04:14:45;;;;;;;41.28;19.85;;;;;;;;;;4961405;28;20051;-85
2021/12/22 04:17:11;;;;;;;36.47;19.52;;;;;;;;;;4955031;28;20051;-84
2021/12/22 04:19:37;;;;;;;34.28;20.13;;;;;;;;;;4947441;29;20129;-84
2021/12/22 04:22:04;;;;;;;34.85;18.10;;;;;;;;;;4945952;28;20046;-86
2021/12/22 04:24:31;;;;;;;36.80;19.58;;;;;;;;;;4894404;28;20051;-85
2021/12/22 04:26:57;;;;;;;40.17;19.52;;;;;;;;;;4959528;28;20055;-85
2021/12/22 04:29:24;;;;;;;34.65;17.85;;;;;;;;;;4943577;28;20050;-84
2021/12/22 04:31:50;;;;;;;36.70;19.70;;;;;;;;;;4932200;28;20050;-86
2021/12/22 04:34:16;;;;;;;32.92;18.13;;;;;;;;;;4945027;28;20039;-85
2021/12/22 04:36:42;;;;;;;37.33;18.50;;;;;;;;;;4945594;28;20106;-85
2021/12/22 04:39:09;;;;;;;30.50;18.45;;;;;;;;;;4943480;28;20428;-85
2021/12/22 04:41:35;;;;;;;33.35;19.20;;;;;;;;;;4946752;28;20043;-84
2021/12/22 04:44:02;;;;;;;32.15;17.50;;;;;;;;;;4945206;28;20043;-85
2021/12/22 04:46:28;;;;;;;34.17;17.35;;;;;;;;;;4945627;28;20043;-84
2021/12/22 04:48:54;;;;;;;28.40;17.05;;;;;;;;;;4944268;28;20125;-86
2021/12/22 04:51:26;;;;;;;27.55;16.60;;;;;;;;;;4944259;28;20073;-85
2021/12/22 04:54:16;;;;;;;33.53;16.92;;;;;;;;;;4944515;28;20051;-84
2021/12/22 04:56:44;;;;;;;27.63;15.50;;;;;;;;;;4922297;29;20062;-84
2021/12/22 04:59:11;;;;;;;28.50;14.95;;;;;;;;;;4923385;29;20132;-85
2021/12/22 05:01:37;;;;;;;24.67;15.65;;;;;;;;;;4939045;28;20052;-83
2021/12/22 05:04:03;;;;;;;33.15;14.30;;;;;;;;;;4923262;29;20130;-84
2021/12/22 05:06:32;;;;;;;29.15;15.35;;;;;;;;;;4921376;29;20055;-83
2021/12/22 05:08:58;;;;;;;25.08;14.73;;;;;;;;;;4921986;29;20043;-84
2021/12/22 05:11:24;;;;;;;25.52;14.00;;;;;;;;;;4924211;29;20051;-84
2021/12/22 05:13:50;;;;;;;26.50;13.70;;;;;;;;;;4922160;29;20156;-84
2021/12/22 05:16:18;;;;;;;26.38;14.80;;;;;;;;;;4907021;29;20051;-84
2021/12/22 05:18:51;;;;;;;26.90;13.60;;;;;;;;;;4921026;29;20043;-83
2021/12/22 05:21:21;;;;;;;23.08;13.48;;;;;;;;;;4923953;29;20043;-83
2021/12/22 05:23:52;;;;;;;27.83;14.45;;;;;;;;;;4942203;28;20202;-84
2021/12/22 05:26:19;;;;;;;27.27;13.93;;;;;;;;;;4910709;29;20048;-83
2021/12/22 05:28:45;;;;;;;23.38;14.02;;;;;;;;;;4946529;29;20055;-84
2021/12/22 05:31:11;;;;;;;25.75;13.98;;;;;;;;;;4946519;28;20557;-83
2021/12/22 05:33:37;;;;;;;22.50;12.85;;;;;;;;;;4914055;29;20519;-83
2021/12/22 05:36:04;;;;;;;29.33;14.00;;;;;;;;;;4947562;28;20064;-82
2021/12/22 05:38:30;;;;;;;26.98;14.00;;;;;;;;;;4948120;28;20457;-83
2021/12/22 05:40:56;;;;;;;23.77;14.23;;;;;;;;;;4934268;29;20039;-83
2021/12/22 05:43:22;;;;;;;27.88;15.35;;;;;;;;;;4957980;28;20125;-82
2021/12/22 05:45:48;;;;;;;24.58;13.50;;;;;;;;;;4964315;28;20055;-84
2021/12/22 05:48:14;;;;;;;29.00;14.80;;;;;;;;;;4949433;28;20499;-83
2021/12/22 05:50:46;;;;;;;24.50;13.45;;;;;;;;;;4930541;29;20126;-83
2021/12/22 05:53:13;;;;;;;22.45;14.07;;;;;;;;;;4950793;28;20070;-83
2021/12/22 05:55:39;;;;;;;27.08;15.18;;;;;;;;;;4944595;28;20035;-83
2021/12/22 05:58:05;;;;;;;27.15;13.60;;;;;;;;;;4930651;29;20043;-83
2021/12/22 06:00:31;;;;;;;31.15;16.08;;;;;;;;;;4946299;29;20054;-84
2021/12/22 06:02:57;;;;;;;30.98;15.57;;;;;;;;;;4946404;28;20130;-83
2021/12/22 06:05:24;;;;;;;26.77;14.65;;;;;;;;;;4914620;29;20067;-84
2021/12/22 06:07:50;;;;;;;27.90;14.65;;;;;;;;;;4929567;28;20411;-83
2021/12/22 06:10:16;;;;;;;29.50;14.80;;;;;;;;;;4931413;29;20054;-84
2021/12/22 06:12:42;;;;;;;25.05;14.85;;;;;;;;;;4948316;28;20054;-83
2021/12/22 06:15:08;;;;;;;25.90;14.43;;;;;;;;;;4946360;29;20086;-83
2021/12/22 06:17:35;;;;;;;26.60;14.40;;;;;;;;;;4941326;29;20047;-82
2021/12/22 06:20:03;;;;;;;28.58;14.82;;;;;;;;;;4946276;28;20028;-82
2021/12/22 06:22:31;;;;;;;24.63;14.32;;;;;;;;;;4938046;29;20543;-83
2021/12/22 06:24:57;;;;;;;27.00;14.50;;;;;;;;;;4933449;29;20051;-84
2021/12/22 06:27:23;;;;;;;28.38;14.88;;;;;;;;;;4931498;29;20098;-83
2021/12/22 06:29:50;;;;;;;25.50;15.32;;;;;;;;;;4933764;29;20094;-82
2021/12/22 06:32:16;;;;;;;27.80;15.48;;;;;;;;;;4927649;29;20504;-82
2021/12/22 06:34:42;;;;;;;25.08;14.00;;;;;;;;;;4928246;29;20491;-83
2021/12/22 06:37:08;;;;;;;24.90;14.82;;;;;;;;;;4913525;29;20036;-82
2021/12/22 06:39:34;;;;;;;27.02;15.70;;;;;;;;;;4929093;29;20382;-82
2021/12/22 06:42:00;;;;;;;23.40;15.02;;;;;;;;;;4932091;28;20043;-82
2021/12/22 06:44:26;;;;;;;30.80;16.35;;;;;;;;;;4939618;29;20171;-83
2021/12/22 06:46:53;;;;;;;26.70;15.80;;;;;;;;;;4945360;29;20035;-82
2021/12/22 06:49:19;;;;;;;27.42;14.32;;;;;;;;;;4910772;29;20123;-82
2021/12/22 06:51:45;;;;;;;28.13;14.15;;;;;;;;;;4913328;29;20051;-82
2021/12/22 06:54:13;;;;;;;27.48;15.93;;;;;;;;;;4932807;29;20062;-82
2021/12/22 06:56:39;;;;;;;29.00;14.75;;;;;;;;;;4941530;29;20059;-82
2021/12/22 06:59:05;;;;;;;29.08;16.23;;;;;;;;;;4945418;29;20109;-82
2021/12/22 07:01:34;;;;;;;27.25;15.38;;;;;;;;;;4935413;29;20043;-82
2021/12/22 07:04:00;;;;;;;27.52;16.13;;;;;;;;;;4949036;28;20094;-82
2021/12/22 07:06:27;;;;;;;30.60;17.23;;;;;;;;;;4932833;29;20537;-82
2021/12/22 07:08:53;;;;;;;31.23;15.13;;;;;;;;;;4936641;29;20039;-83
2021/12/22 07:11:19;;;;;;;29.65;16.90;;;;;;;;;;4931105;29;20507;-81
2021/12/22 07:13:45;;;;;;;37.13;16.70;;;;;;;;;;4938993;29;20055;-82
2021/12/22 07:16:11;;;;;;;30.80;16.45;;;;;;;;;;4933643;28;20047;-83
2021/12/22 07:18:37;;;;;;;32.90;16.98;;;;;;;;;;4929134;29;20571;-82
2021/12/22 07:21:06;;;;;;;31.23;16.70;;;;;;;;;;4934632;29;20067;-82
2021/12/22 07:23:32;;;;;;;34.90;17.17;;;;;;;;;;4899570;29;20078;-82
2021/12/22 07:25:58;;;;;;;27.77;16.52;;;;;;;;;;4929870;29;20083;-83
2021/12/22 07:28:24;;;;;;;31.30;15.63;;;;;;;;;;4943452;28;20145;-83
2021/12/22 07:30:50;;;;;;;32.22;16.70;;;;;;;;;;4927715;29;20495;-83
2021/12/22 07:33:18;;;;;;;34.42;16.88;;;;;;;;;;4938909;29;20127;-84
2021/12/22 07:35:53;;;;;;;31.23;16.45;;;;;;;;;;4939935;28;20054;-83
2021/12/22 07:38:35;;;;;;;32.70;16.75;;;;;;;;;;4912958;29;20062;-83
2021/12/22 07:41:02;;;;;;;29.85;16.20;;;;;;;;;;4911356;29;20130;-82
2021/12/22 07:43:29;;;;;;;33.28;16.98;;;;;;;;;;4931010;29;20094;-82
2021/12/22 07:45:55;;;;;;;32.45;16.35;;;;;;;;;;4933785;29;20095;-82
2021/12/22 07:48:21;;;;;;;33.67;17.02;;;;;;;;;;4961101;29;20046;-84
2021/12/22 07:50:48;;;;;;;29.60;16.63;;;;;;;;;;4946866;29;20047;-83
2021/12/22 07:53:14;;;;;;;30.50;16.35;;;;;;;;;;4943781;29;20071;-84
2021/12/22 07:55:40;;;;;;;30.88;16.38;;;;;;;;;;4941681;29;20040;-81
2021/12/22 07:58:09;;;;;;;35.40;16.98;;;;;;;;;;4943726;29;20039;-80
2021/12/22 08:00:36;;;;;;;35.67;17.58;;;;;;;;;;4955350;29;20545;-80
2021/12/22 08:03:03;;;;;;;32.08;16.42;;;;;;;;;;4945625;28;20079;-81
2021/12/22 08:05:29;;;;;;;31.73;17.50;;;;;;;;;;4914317;29;20044;-81
2021/12/22 08:07:56;;;;;;;32.30;17.40;;;;;;;;;;4929357;29;20055;-81
2021/12/22 08:10:22;;;;;;;30.85;16.55;;;;;;;;;;4938046;29;20082;-81
2021/12/22 08:12:49;;;;;;;33.17;16.23;;;;;;;;;;4943787;29;20070;-82
2021/12/22 08:15:15;;;;;;;34.13;16.60;;;;;;;;;;4943770;28;20048;-79
2021/12/22 08:17:42;;;;;;;33.20;17.48;;;;;;;;;;4928577;29;20051;-81
2021/12/22 08:20:09;;;;;;;29.45;16.30;;;;;;;;;;4926402;29;20048;-81
2021/12/22 08:22:35;;;;;;;32.95;16.67;;;;;;;;;;4928964;29;20407;-82
2021/12/22 08:25:01;;;;;;;34.88;17.77;;;;;;;;;;4926820;29;20044;-81
2021/12/22 08:27:27;;;;;;;28.70;15.90;;;;;;;;;;4928793;29;20779;-81
2021/12/22 08:29:53;;;;;;;31.75;16.25;;;;;;;;;;4927035;29;20480;-81
2021/12/22 08:32:19;;;;;;;31.58;15.70;;;;;;;;;;4909582;29;20130;-81
2021/12/22 08:34:47;;;;;;;27.73;15.05;;;;;;;;;;4908853;29;20123;-81
2021/12/22 08:39:58;;;;;;;27.63;14.90;;;;;;;;;;4947700;29;20466;-81
2021/12/22 08:42:25;;;;;;;31.73;15.90;;;;;;;;;;4918247;29;20086;-81
2021/12/22 08:44:52;;;;;;;29.45;15.35;;;;;;;;;;4929984;29;20118;-82
2021/12/22 08:47:19;;;;;;;26.08;14.43;;;;;;;;;;4922163;29;20039;-81
2021/12/22 08:49:46;;;;;;;28.95;15.55;;;;;;;;;;4927743;29;20523;-82
2021/12/22 08:52:12;;;;;;;28.65;16.20;;;;;;;;;;4927572;29;20087;-81
2021/12/22 08:54:38;;;;;;;32.20;16.80;;;;;;;;;;4916096;29;20033;-80
2021/12/22 08:57:05;;;;;;;31.40;15.55;;;;;;;;;;4929509;29;20377;-79
2021/12/22 08:59:31;;;;;;;29.05;15.57;;;;;;;;;;4928539;29;20453;-80
2021/12/22 09:01:57;;;;;;;26.40;14.63;;;;;;;;;;4932403;29;20056;-80
2021/12/22 09:04:24;;;;;;;31.85;15.70;;;;;;;;;;4929244;29;20040;-81
2021/12/22 09:06:51;;;;;;;27.65;15.40;;;;;;;;;;4930739;29;20516;-81
2021/12/22 09:09:17;;;;;;;28.95;16.27;;;;;;;;;;4912325;29;20039;-80
2021/12/22 09:11:44;;;;;;;28.60;15.75;;;;;;;;;;4912120;29;20182;-81
2021/12/22 09:14:10;;;;;;;26.38;14.73;;;;;;;;;;4932710;28;20070;-81
2021/12/22 09:16:37;;;;;;;30.65;17.08;;;;;;;;;;4942570;28;20414;-81
2021/12/22 09:19:04;;;;;;;26.42;15.63;;;;;;;;;;4941771;28;20542;-83
2021/12/22 09:21:30;;;;;;;29.58;15.98;;;;;;;;;;4925843;29;20047;-82
2021/12/22 09:23:56;;;;;;;32.90;16.05;;;;;;;;;;4948063;29;20589;-81
2021/12/22 09:26:22;;;;;;;31.00;16.75;;;;;;;;;;4947191;29;20095;-81
2021/12/22 09:28:49;;;;;;;31.85;16.75;;;;;;;;;;4930757;29;20125;-81
2021/12/22 09:31:15;;;;;;;30.60;17.50;;;;;;;;;;4932463;29;20517;-81
2021/12/22 09:33:43;;;;;;;28.48;17.02;;;;;;;;;;4947101;29;20105;-81
2021/12/22 09:36:11;;;;;;;27.10;15.93;;;;;;;;;;4930329;29;20047;-79
2021/12/22 09:38:37;;;;;;;32.92;16.55;;;;;;;;;;4946447;28;20047;-80
2021/12/22 09:41:04;;;;;;;29.17;15.10;;;;;;;;;;4932038;29;20139;-81
2021/12/22 09:43:34;;;;;;;28.13;14.93;;;;;;;;;;4930505;29;20046;-82
2021/12/22 09:46:06;;;;;;;31.00;15.45;;;;;;;;;;4935615;29;20134;-80
2021/12/22 09:48:59;;;;;;;31.02;16.58;;;;;;;;;;4943762;29;20106;-83
2021/12/22 09:54:04;;;;;;;25.70;14.15;;;;;;;;;;4962132;28;20059;-81
2021/12/22 09:56:33;;;;;;;27.70;15.93;;;;;;;;;;4950908;28;20543;-82
2021/12/22 09:59:14;;;;;;;27.15;15.80;;;;;;;;;;4935666;29;20098;-82
2021/12/22 10:01:41;;;;;;;27.35;15.55;;;;;;;;;;4930099;28;20537;-82
2021/12/22 10:04:07;;;;;;;33.53;16.13;;;;;;;;;;4946295;29;20428;-81
2021/12/22 10:09:24;;;;;;;27.52;16.90;;;;;;;;;;4946497;28;20105;-82
2021/12/22 10:11:51;;;;;;;30.23;16.17;;;;;;;;;;4968914;28;20495;-82
2021/12/22 10:17:35;;;;;;;31.95;17.50;;;;;;;;;;4948574;28;20125;-83
2021/12/22 10:20:03;;;;;;;29.30;16.50;;;;;;;;;;4979358;28;20086;-82
2021/12/22 10:22:30;;;;;;;32.50;17.35;;;;;;;;;;4947305;28;20047;-82
2021/12/22 10:25:08;;;;;;;34.75;16.70;;;;;;;;;;4962390;28;20034;-82
2021/12/22 10:27:35;;;;;;;30.90;15.93;;;;;;;;;;4953480;28;20165;-81
2021/12/22 10:30:19;;;;;;;30.15;17.00;;;;;;;;;;4949027;28;20460;-82
2021/12/22 10:32:45;;;;;;;26.15;14.88;;;;;;;;;;4944294;29;20049;-81
2021/12/22 10:35:11;;;;;;;28.52;14.90;;;;;;;;;;4932825;29;20043;-83
2021/12/22 10:37:38;;;;;;;31.83;15.57;;;;;;;;;;4947914;29;20039;-83
2021/12/22 10:40:23;;;;;;;29.30;15.27;;;;;;;;;;4948014;29;20043;-83
2021/12/22 10:42:49;;;;;;;27.80;14.80;;;;;;;;;;4948790;29;20094;-82
2021/12/22 10:45:15;;;;;;;25.52;13.15;;;;;;;;;;4946645;28;20039;-82
2021/12/22 10:50:40;;;;;;;28.60;14.10;;;;;;;;;;4948353;28;20460;-84
2021/12/22 10:53:18;;;;;;;26.75;14.43;;;;;;;;;;4945578;28;20089;-82
2021/12/22 10:55:57;;;;;;;;;;;;;;;;;;;;;
2021/12/22 10:58:41;;;;;;;28.42;14.82;;;;;;;;;;4925644;28;20177;-82
2021/12/22 11:01:14;;;;;;;28.48;15.43;;;;;;;;;;4955879;28;20047;-82
2021/12/22 11:03:47;;;;;;;27.38;12.00;;;;;;;;;;4952386;28;20058;-83
2021/12/22 11:06:26;;;;;;;25.27;13.88;;;;;;;;;;4936506;28;20053;-83
2021/12/22 11:08:53;;;;;;;27.42;14.18;;;;;;;;;;4959498;28;20047;-84
2021/12/22 11:11:19;;;;;;;26.60;14.20;;;;;;;;;;4962169;28;20075;-83
2021/12/22 11:13:45;;;;;;;22.02;13.20;;;;;;;;;;4927908;28;20133;-83
2021/12/22 11:16:15;;;;;;;28.38;14.32;;;;;;;;;;4933829;28;20511;-82
2021/12/22 11:18:42;;;;;;;25.50;13.73;;;;;;;;;;4929485;29;20107;-82
2021/12/22 11:21:09;;;;;;;25.63;14.15;;;;;;;;;;4898633;29;20039;-81
2021/12/22 11:23:35;;;;;;;30.38;14.90;;;;;;;;;;4927087;29;20047;-83
2021/12/22 11:26:02;;;;;;;25.77;12.52;;;;;;;;;;4932093;29;20123;-82
2021/12/22 11:28:28;;;;;;;27.58;13.00;;;;;;;;;;4911811;29;20095;-83
2021/12/22 11:30:55;;;;;;;22.33;14.32;;;;;;;;;;4934614;29;20050;-84
2021/12/22 11:33:21;;;;;;;23.52;12.35;;;;;;;;;;4920388;29;20638;-82
2021/12/22 11:35:48;;;;;;;22.15;13.50;;;;;;;;;;4951096;29;20601;-83
2021/12/22 11:38:14;;;;;;;22.23;12.93;;;;;;;;;;4930075;29;20547;-84
2021/12/22 11:40:44;;;;;;;19.83;11.65;;;;;;;;;;4937883;29;20039;-84
2021/12/22 11:43:11;;;;;;;18.90;12.35;;;;;;;;;;4913378;29;20039;-84
2021/12/22 11:45:38;;;;;;;19.77;11.52;;;;;;;;;;4930929;29;20051;-82
2021/12/22 11:48:04;;;;;;;20.98;12.50;;;;;;;;;;4945262;29;20146;-85
2021/12/22 11:50:33;;;;;;;19.17;12.90;;;;;;;;;;4926794;29;20059;-84
2021/12/22 11:53:05;;;;;;;18.13;11.65;;;;;;;;;;4956712;28;20044;-79
2021/12/22 11:55:43;;;;;;;16.20;10.38;;;;;;;;;;4953242;28;20031;-85
2021/12/22 11:58:15;;;;;;;27.02;11.50;;;;;;;;;;4924880;29;20058;-84
2021/12/22 12:00:57;;;;;;;20.05;12.05;;;;;;;;;;4935473;29;20510;-85
2021/12/22 12:03:28;;;;;;;25.23;13.18;;;;;;;;;;4926543;29;20047;-84
2021/12/22 12:06:21;;;;;;;20.92;13.02;;;;;;;;;;4924458;29;20043;-85
2021/12/22 12:08:57;;;;;;;19.48;12.10;;;;;;;;;;4940780;29;20052;-83
2021/12/22 12:11:39;;;;;;;19.85;11.52;;;;;;;;;;4922008;29;20079;-84
2021/12/22 12:14:29;;;;;;;18.00;10.45;;;;;;;;;;4909146;28;20043;-85
2021/12/22 12:23:35;;;;;;;21.58;13.10;;;;;;;;;;4940399;29;20054;-84
2021/12/22 12:26:05;;;;;;;21.00;11.95;;;;;;;;;;4903183;29;20054;-85
2021/12/22 12:28:48;;;;;;;25.23;11.80;;;;;;;;;;4908002;29;20079;-85
2021/12/22 12:31:14;;;;;;;16.83;11.50;;;;;;;;;;4945243;28;20485;-84
2021/12/22 12:33:45;;;;;;;21.33;11.55;;;;;;;;;;4941548;28;20531;-85
2021/12/22 12:36:32;;;;;;;17.23;11.05;;;;;;;;;;4945151;29;20389;-86
2021/12/22 12:38:58;;;;;;;19.95;12.48;;;;;;;;;;4947692;29;20122;-84
2021/12/22 12:41:28;;;;;;;18.27;11.95;;;;;;;;;;4954684;29;20043;-86
2021/12/22 12:44:12;;;;;;;18.88;12.05;;;;;;;;;;4918524;29;20589;-85
2021/12/22 12:46:38;;;;;;;21.17;11.63;;;;;;;;;;4938916;29;20035;-84
2021/12/22 12:49:39;;;;;;;18.73;11.90;;;;;;;;;;4919603;29;20069;-86
2021/12/22 12:52:09;;;;;;;18.63;12.00;;;;;;;;;;4946736;29;20138;-84
2021/12/22 12:54:40;;;;;;;20.42;11.75;;;;;;;;;;4939180;29;20048;-84
2021/12/22 12:57:43;;;;;;;21.17;12.68;;;;;;;;;;4884505;29;20121;-84
2021/12/22 13:00:18;;;;;;;18.38;11.63;;;;;;;;;;4874520;29;20080;-82
2021/12/22 13:03:00;;;;;;;21.40;13.38;;;;;;;;;;4883267;29;20075;-84
2021/12/22 13:05:29;;;;;;;23.73;13.95;;;;;;;;;;4887245;29;20093;-82
2021/12/22 13:08:03;;;;;;;19.92;13.52;;;;;;;;;;4872300;29;20493;-82
2021/12/22 13:10:36;;;;;;;22.42;13.00;;;;;;;;;;4874181;29;20055;-84
2021/12/22 13:13:19;;;;;;;24.00;13.50;;;;;;;;;;4879891;29;20072;-82
2021/12/22 13:15:51;;;;;;;22.20;14.77;;;;;;;;;;4912078;29;20067;-86
2021/12/22 13:18:41;;;;;;;24.17;14.40;;;;;;;;;;4915453;29;20060;-83
2021/12/22 13:21:07;;;;;;;21.08;13.55;;;;;;;;;;4864447;29;20115;-85
2021/12/22 13:24:11;;;;;;;19.65;13.00;;;;;;;;;;4912439;29;20123;-84
2021/12/22 13:26:38;;;;;;;27.00;14.68;;;;;;;;;;4844669;29;20096;-84
2021/12/22 13:32:26;;;;;;;25.65;15.35;;;;;;;;;;4929589;29;20129;-83
2021/12/22 13:34:58;;;;;;;24.77;16.00;;;;;;;;;;4928726;28;20051;-85
2021/12/22 13:37:24;;;;;;;24.88;14.85;;;;;;;;;;4932740;28;20051;-82
2021/12/22 13:39:51;;;;;;;27.83;14.48;;;;;;;;;;4939574;28;20134;-84
2021/12/22 13:42:35;;;;;;;27.77;14.98;;;;;;;;;;4953385;28;20043;-83
2021/12/22 13:45:07;;;;;;;25.38;15.00;;;;;;;;;;4949656;28;20507;-84
2021/12/22 13:47:33;;;;;;;23.52;14.75;;;;;;;;;;4928784;28;20038;-82
2021/12/22 13:49:59;;;;;;;24.77;13.60;;;;;;;;;;4957734;28;20096;-85
2021/12/22 13:52:25;;;;;;;27.45;15.45;;;;;;;;;;4963675;28;20061;-84
2021/12/22 13:54:51;;;;;;;23.90;14.75;;;;;;;;;;4953537;28;20043;-83
2021/12/22 13:57:27;;;;;;;24.65;14.45;;;;;;;;;;4954706;28;20055;-83
2021/12/22 13:59:59;;;;;;;25.23;14.25;;;;;;;;;;4953140;28;20138;-84
2021/12/22 14:02:35;;;;;;;25.75;15.07;;;;;;;;;;4960640;28;20050;-84
2021/12/22 14:05:23;;;;;;;24.98;13.55;;;;;;;;;;4958534;28;20043;-83
2021/12/22 14:07:49;;;;;;;29.58;14.98;;;;;;;;;;4954298;28;20134;-83
2021/12/22 14:10:16;;;;;;;24.90;14.77;;;;;;;;;;4944408;28;20038;-85
2021/12/22 14:12:44;;;;;;;24.40;14.68;;;;;;;;;;4925880;28;20034;-84
2021/12/22 14:15:10;;;;;;;26.90;14.88;;;;;;;;;;4950198;28;20051;-85
2021/12/22 14:17:42;;;;;;;26.05;15.90;;;;;;;;;;4948657;28;20046;-83
2021/12/22 14:20:14;;;;;;;32.75;14.98;;;;;;;;;;4952014;28;20058;-84
2021/12/22 14:22:48;;;;;;;32.97;16.10;;;;;;;;;;4984039;28;20082;-87
2021/12/22 14:25:22;;;;;;;31.25;16.40;;;;;;;;;;4953154;28;20047;-84
2021/12/22 14:27:49;;;;;;;23.67;14.75;;;;;;;;;;4952880;28;20062;-89
2021/12/22 14:30:23;;;;;;;25.90;15.68;;;;;;;;;;4948865;28;20137;-84
2021/12/22 14:33:03;;;;;;;23.65;14.85;;;;;;;;;;4950706;28;20089;-86
2021/12/22 14:35:30;;;;;;;24.88;14.50;;;;;;;;;;4953304;28;20178;-85
2021/12/22 14:38:20;;;;;;;28.48;15.75;;;;;;;;;;4947819;28;20043;-85
2021/12/22 14:40:52;;;;;;;28.45;14.68;;;;;;;;;;4929722;28;20047;-85
2021/12/22 14:43:18;;;;;;;29.10;15.32;;;;;;;;;;4948097;28;20087;-84
2021/12/22 14:45:44;;;;;;;26.95;14.55;;;;;;;;;;4947516;29;20047;-83
2021/12/22 14:48:15;;;;;;;25.67;15.07;;;;;;;;;;4951938;28;20126;-84
2021/12/22 14:50:54;;;;;;;25.25;15.40;;;;;;;;;;4953839;28;20055;-83
2021/12/22 14:53:26;;;;;;;28.27;16.20;;;;;;;;;;4946521;28;20105;-83
2021/12/22 14:55:55;;;;;;;26.85;16.10;;;;;;;;;;4948617;28;20506;-83
2021/12/22 14:58:21;;;;;;;27.65;15.80;;;;;;;;;;4948453;29;20923;-84
2021/12/22 15:00:48;;;;;;;28.65;16.33;;;;;;;;;;4945990;28;20051;-84
2021/12/22 15:03:15;;;;;;;28.23;16.63;;;;;;;;;;4931050;29;20051;-84
2021/12/22 15:05:45;;;;;;;25.58;16.10;;;;;;;;;;4947955;29;20051;-84
2021/12/22 15:08:11;;;;;;;26.48;15.45;;;;;;;;;;4931779;28;20091;-85